Time;durP1;ratioP1;P1;durP2;ratioP2;P2;SDS_P1;SDS_P2;PMS_P1;PMS_P2;Temp;Humidity;BMP_temperature;BMP_pressure;BME280_temperature;BME280_humidity;BME280_pressure;Samples;Min_cycle;Max_cycle;Signal;HPM_P1;HPM_P2
2021/08/01 00:00:03;;;;;;;13.55;8.63;;;19.50;99.90;;;;;;4221893;28;20028;-61
2021/08/01 00:02:04;;;;;;;10.43;8.18;;;19.40;99.90;;;;;;4222180;28;20085;-62
2021/08/01 00:04:05;;;;;;;9.45;8.00;;;19.50;99.90;;;;;;4222253;28;20475;-61
2021/08/01 00:06:09;;;;;;;10.88;7.43;;;19.40;99.90;;;;;;4225208;28;20027;-62
2021/08/01 00:08:10;;;;;;;10.40;8.63;;;19.40;99.90;;;;;;4225469;28;20027;-63
2021/08/01 00:10:11;;;;;;;10.30;7.53;;;19.40;99.90;;;;;;4225435;28;20028;-60
2021/08/01 00:12:12;;;;;;;9.43;7.13;;;19.40;99.90;;;;;;4222927;28;20036;-62
2021/08/01 00:14:14;;;;;;;7.72;6.32;;;19.20;99.90;;;;;;4224429;28;20024;-62
2021/08/01 00:16:15;;;;;;;8.68;6.30;;;19.10;99.90;;;;;;4225359;28;20032;-62
2021/08/01 00:18:16;;;;;;;8.23;6.78;;;19.00;99.90;;;;;;4225497;28;20039;-62
2021/08/01 00:20:17;;;;;;;10.07;6.75;;;18.90;99.90;;;;;;4225785;28;20040;-62
2021/08/01 00:22:19;;;;;;;10.27;6.93;;;18.60;99.90;;;;;;4225914;28;20602;-62
2021/08/01 00:24:21;;;;;;;8.02;6.57;;;18.50;99.90;;;;;;4225552;28;20041;-61
2021/08/01 00:26:22;;;;;;;8.15;6.22;;;18.40;99.90;;;;;;4224892;28;20035;-62
2021/08/01 00:28:23;;;;;;;9.52;6.60;;;18.30;99.90;;;;;;4224920;28;20092;-62
2021/08/01 00:30:24;;;;;;;11.52;5.93;;;18.20;99.90;;;;;;4225200;28;20487;-62
2021/08/01 00:32:25;;;;;;;11.25;6.30;;;18.20;99.90;;;;;;4224693;28;20105;-61
2021/08/01 00:34:26;;;;;;;9.85;6.40;;;18.10;99.90;;;;;;4225272;28;20061;-62
2021/08/01 00:36:27;;;;;;;10.05;6.35;;;18.00;99.90;;;;;;4224467;28;20065;-62
2021/08/01 00:38:29;;;;;;;12.57;6.32;;;17.90;99.90;;;;;;4225384;28;20032;-62
2021/08/01 00:40:30;;;;;;;7.72;6.20;;;17.80;99.90;;;;;;4225133;28;20886;-62
2021/08/01 00:42:33;;;;;;;15.27;6.28;;;17.70;99.90;;;;;;4225242;28;20027;-62
2021/08/01 00:44:34;;;;;;;8.05;5.80;;;17.70;99.90;;;;;;4224872;28;20589;-61
2021/08/01 00:46:36;;;;;;;10.30;6.55;;;17.60;99.90;;;;;;4224533;28;20076;-62
2021/08/01 00:48:38;;;;;;;10.45;6.78;;;17.60;99.90;;;;;;4224495;27;20047;-61
2021/08/01 00:50:42;;;;;;;9.27;6.40;;;17.50;99.90;;;;;;4224606;28;20039;-61
2021/08/01 00:52:46;;;;;;;8.90;6.45;;;17.50;99.90;;;;;;4224992;28;20087;-62
2021/08/01 00:54:47;;;;;;;11.35;6.53;;;17.40;99.90;;;;;;4223421;28;20051;-60
2021/08/01 00:56:49;;;;;;;11.07;6.93;;;17.40;99.90;;;;;;4224818;28;20031;-63
2021/08/01 00:58:51;;;;;;;12.75;6.95;;;17.30;99.90;;;;;;4224655;28;20096;-62
2021/08/01 01:01:05;;;;;;;8.70;6.10;;;17.30;99.90;;;;;;4224470;28;20016;-62
2021/08/01 01:03:18;;;;;;;11.25;6.45;;;17.30;99.90;;;;;;4225176;28;20077;-62
2021/08/01 01:05:27;;;;;;;12.23;6.90;;;17.30;99.90;;;;;;4224566;28;20047;-60
2021/08/01 01:07:40;;;;;;;8.65;6.43;;;17.30;99.90;;;;;;4224535;28;20035;-61
2021/08/01 01:09:54;;;;;;;8.50;6.50;;;17.20;99.90;;;;;;4223810;28;20035;-62
2021/08/01 01:11:58;;;;;;;13.23;7.18;;;17.20;99.90;;;;;;4224204;28;20037;-61
2021/08/01 01:14:01;;;;;;;12.02;6.95;;;17.20;99.90;;;;;;4224307;27;20069;-62
2021/08/01 01:16:03;;;;;;;13.77;7.40;;;17.20;99.90;;;;;;4222944;27;20093;-61
2021/08/01 01:18:07;;;;;;;22.30;7.43;;;17.20;99.90;;;;;;4224322;28;20548;-60
2021/08/01 01:20:14;;;;;;;11.82;6.50;;;17.20;99.90;;;;;;4224042;28;20096;-61
2021/08/01 01:22:57;;;;;;;10.07;6.35;;;17.10;99.90;;;;;;4224872;28;20080;-62
2021/08/01 01:25:04;;;;;;;11.27;6.75;;;17.10;99.90;;;;;;4224404;28;20040;-62
2021/08/01 01:27:13;;;;;;;8.65;6.28;;;17.10;99.90;;;;;;4223549;28;20043;-62
2021/08/01 01:29:45;;;;;;;12.27;7.10;;;17.10;99.90;;;;;;4224083;28;20023;-62
2021/08/01 01:31:48;;;;;;;11.70;6.15;;;17.10;99.90;;;;;;4223519;28;20897;-61
2021/08/01 01:33:58;;;;;;;8.40;5.65;;;17.10;99.90;;;;;;4224291;28;20027;-61
2021/08/01 01:36:05;;;;;;;8.75;5.25;;;17.20;99.90;;;;;;4224429;28;20081;-63
2021/08/01 01:38:07;;;;;;;8.88;5.95;;;17.20;99.90;;;;;;4223962;28;20089;-62
2021/08/01 01:40:08;;;;;;;9.73;6.40;;;17.20;99.90;;;;;;4223747;28;20144;-61
2021/08/01 01:42:12;;;;;;;12.55;5.88;;;17.20;99.90;;;;;;4223697;27;20520;-61
2021/08/01 01:44:14;;;;;;;11.77;6.38;;;17.20;99.90;;;;;;4223716;28;20023;-60
2021/08/01 01:46:15;;;;;;;10.23;6.00;;;17.20;99.90;;;;;;4224189;28;20040;-61
2021/08/01 01:48:16;;;;;;;8.13;6.05;;;17.20;99.90;;;;;;4223786;28;20045;-62
2021/08/01 01:50:18;;;;;;;7.45;5.10;;;17.10;99.90;;;;;;4222889;28;20052;-62
2021/08/01 01:52:21;;;;;;;8.85;5.63;;;17.10;99.90;;;;;;4222114;28;20036;-62
2021/08/01 01:54:23;;;;;;;7.70;5.75;;;17.10;99.90;;;;;;4223613;28;20091;-61
2021/08/01 01:56:26;;;;;;;12.38;5.70;;;17.10;99.90;;;;;;4223830;28;20073;-62
2021/08/01 01:58:28;;;;;;;6.75;5.72;;;17.00;99.90;;;;;;4223507;27;20085;-62
2021/08/01 02:00:29;;;;;;;9.63;5.53;;;17.10;99.90;;;;;;4223365;28;20100;-61
2021/08/01 02:02:30;;;;;;;9.23;5.30;;;17.00;99.90;;;;;;4223557;28;20061;-62
2021/08/01 02:04:31;;;;;;;9.43;5.20;;;17.00;99.90;;;;;;4223616;28;20084;-62
2021/08/01 02:06:34;;;;;;;8.60;5.13;;;17.00;99.90;;;;;;4221807;28;20040;-62
2021/08/01 02:08:54;;;;;;;6.82;5.50;;;17.10;99.90;;;;;;4223323;28;20035;-60
2021/08/01 02:10:59;;;;;;;8.80;5.60;;;17.10;99.90;;;;;;4223303;28;20047;-62
2021/08/01 02:13:05;;;;;;;10.40;5.63;;;17.10;99.90;;;;;;4223623;28;20031;-62
2021/08/01 02:15:11;;;;;;;10.07;4.90;;;17.10;99.90;;;;;;4222709;28;20032;-62
2021/08/01 02:17:19;;;;;;;10.77;5.70;;;17.10;99.90;;;;;;4223278;28;20036;-62
2021/08/01 02:19:23;;;;;;;7.30;4.95;;;17.10;99.90;;;;;;4223571;28;20039;-61
2021/08/01 02:21:24;;;;;;;8.32;5.28;;;17.10;99.90;;;;;;4222742;28;20039;-62
2021/08/01 02:23:29;;;;;;;6.30;5.43;;;17.10;99.90;;;;;;4223678;28;20092;-60
2021/08/01 02:25:30;;;;;;;8.65;5.00;;;17.00;99.90;;;;;;4222556;28;20108;-61
2021/08/01 02:27:34;;;;;;;7.32;5.57;;;17.10;99.90;;;;;;4222420;28;20047;-61
2021/08/01 02:29:36;;;;;;;7.25;5.47;;;17.00;99.90;;;;;;4222954;28;20078;-62
2021/08/01 02:31:38;;;;;;;9.48;5.22;;;17.00;99.90;;;;;;4223421;28;20031;-62
2021/08/01 02:33:40;;;;;;;5.75;5.00;;;17.00;99.90;;;;;;4223002;28;20028;-62
2021/08/01 02:35:41;;;;;;;7.88;5.68;;;16.90;99.90;;;;;;4223271;28;20043;-61
2021/08/01 02:37:44;;;;;;;7.82;4.75;;;16.90;99.90;;;;;;4223191;28;20475;-62
2021/08/01 02:39:46;;;;;;;7.68;5.25;;;16.90;99.90;;;;;;4223044;28;20028;-62
2021/08/01 02:41:51;;;;;;;7.88;5.40;;;16.90;99.90;;;;;;4222131;28;20060;-62
2021/08/01 02:43:52;;;;;;;8.10;5.60;;;16.90;99.90;;;;;;4222437;28;20036;-61
2021/08/01 02:45:55;;;;;;;8.48;5.13;;;16.90;99.90;;;;;;4222407;28;20100;-62
2021/08/01 02:47:58;;;;;;;7.28;5.50;;;16.90;99.90;;;;;;4223398;28;20035;-61
2021/08/01 02:50:02;;;;;;;7.20;5.63;;;16.80;99.90;;;;;;4222469;28;20035;-62
2021/08/01 02:52:05;;;;;;;9.50;5.28;;;16.80;99.90;;;;;;4223266;28;20089;-61
2021/08/01 02:54:08;;;;;;;10.48;5.68;;;16.80;99.90;;;;;;4222003;28;20047;-62
2021/08/01 02:56:12;;;;;;;8.88;5.38;;;16.90;99.90;;;;;;4222871;28;20455;-62
2021/08/01 02:58:13;;;;;;;12.65;6.55;;;16.90;99.90;;;;;;4222516;28;20076;-62
2021/08/01 03:00:15;;;;;;;22.05;7.57;;;16.90;99.90;;;;;;4222860;28;20024;-58
2021/08/01 03:02:17;;;;;;;11.48;7.55;;;16.90;99.90;;;;;;4222386;28;20076;-62
2021/08/01 03:04:18;;;;;;;13.38;8.65;;;16.90;99.90;;;;;;4223016;28;20100;-62
2021/08/01 03:06:20;;;;;;;14.45;7.97;;;16.90;99.90;;;;;;4221788;27;20097;-62
2021/08/01 03:08:22;;;;;;;14.18;9.35;;;16.90;99.90;;;;;;4222981;28;20084;-61
2021/08/01 03:10:23;;;;;;;15.95;10.07;;;16.80;99.90;;;;;;4222231;28;20039;-62
2021/08/01 03:12:24;;;;;;;18.60;9.75;;;16.80;99.90;;;;;;4221493;28;20081;-61
2021/08/01 03:14:25;;;;;;;15.07;10.32;;;16.80;99.90;;;;;;4222337;28;20035;-62
2021/08/01 03:16:27;;;;;;;18.30;10.40;;;16.80;99.90;;;;;;4222426;28;20092;-62
2021/08/01 03:18:28;;;;;;;19.50;11.00;;;16.90;99.90;;;;;;4221705;28;20085;-62
2021/08/01 03:20:29;;;;;;;15.65;9.35;;;16.90;99.90;;;;;;4222522;28;20032;-62
2021/08/01 03:22:30;;;;;;;13.60;9.00;;;17.00;99.90;;;;;;4223193;28;20092;-62
2021/08/01 03:24:32;;;;;;;20.33;10.88;;;17.10;99.90;;;;;;4222279;28;20043;-61
2021/08/01 03:26:34;;;;;;;17.95;9.25;;;17.20;99.90;;;;;;4221749;28;20039;-61
2021/08/01 03:28:35;;;;;;;13.85;8.90;;;17.20;99.90;;;;;;4204523;28;20070;-62
2021/08/01 03:30:36;;;;;;;18.55;8.60;;;17.30;99.90;;;;;;4222518;28;20561;-60
2021/08/01 03:32:37;;;;;;;14.10;8.85;;;17.50;99.90;;;;;;4222197;28;20093;-59
2021/08/01 03:34:38;;;;;;;15.45;8.77;;;17.70;99.90;;;;;;4221871;28;20077;-62
2021/08/01 03:36:40;;;;;;;13.05;8.07;;;18.00;99.90;;;;;;4221910;28;20027;-62
2021/08/01 03:38:41;;;;;;;13.30;7.75;;;18.30;99.90;;;;;;4222563;28;20085;-60
2021/08/01 03:40:42;;;;;;;13.82;8.60;;;18.50;99.90;;;;;;4221719;28;20044;-62
2021/08/01 03:42:44;;;;;;;9.20;7.30;;;18.70;99.90;;;;;;4221515;28;20096;-61
2021/08/01 03:44:45;;;;;;;14.15;7.60;;;18.90;99.90;;;;;;4222078;28;20035;-61
2021/08/01 03:46:46;;;;;;;11.25;7.35;;;19.10;99.90;;;;;;4221929;28;20055;-63
2021/08/01 03:48:47;;;;;;;11.63;7.22;;;19.30;99.90;;;;;;4220171;28;20097;-62
2021/08/01 03:50:48;;;;;;;11.02;7.22;;;19.50;99.90;;;;;;4222098;28;20443;-61
2021/08/01 03:52:49;;;;;;;31.73;7.85;;;19.60;99.90;;;;;;4222299;28;20171;-63
2021/08/01 03:54:51;;;;;;;7.50;5.75;;;20.00;99.90;;;;;;4222139;28;20084;-62
2021/08/01 03:56:53;;;;;;;10.52;6.40;;;20.40;99.90;;;;;;4222078;28;20040;-63
2021/08/01 03:58:55;;;;;;;11.48;6.00;;;20.70;99.90;;;;;;4221734;28;20376;-62
2021/08/01 04:00:56;;;;;;;10.05;6.43;;;20.80;99.90;;;;;;4221302;28;20627;-61
2021/08/01 04:02:58;;;;;;;9.68;6.68;;;20.90;99.90;;;;;;4221373;28;20044;-62
2021/08/01 04:04:59;;;;;;;9.70;6.32;;;20.90;99.90;;;;;;4222135;28;20035;-62
2021/08/01 04:07:00;;;;;;;9.45;6.35;;;21.10;99.90;;;;;;4222031;28;20487;-61
2021/08/01 04:09:04;;;;;;;11.98;6.50;;;21.20;99.90;;;;;;4222493;28;20027;-62
2021/08/01 04:11:06;;;;;;;9.68;7.40;;;21.20;99.90;;;;;;4221581;28;20628;-62
2021/08/01 04:13:07;;;;;;;9.48;6.28;;;21.30;99.90;;;;;;4221816;28;20020;-61
2021/08/01 04:15:09;;;;;;;14.65;8.00;;;21.40;99.90;;;;;;4221719;28;20023;-63
2021/08/01 04:17:10;;;;;;;10.20;6.85;;;21.40;99.90;;;;;;4221941;28;20027;-62
2021/08/01 04:19:13;;;;;;;9.60;6.82;;;21.50;99.90;;;;;;4221789;28;20040;-62
2021/08/01 04:21:14;;;;;;;10.63;7.20;;;21.70;99.90;;;;;;4221760;28;20019;-60
2021/08/01 04:23:15;;;;;;;11.00;5.95;;;21.80;99.90;;;;;;4221375;28;20093;-62
2021/08/01 04:25:16;;;;;;;10.20;5.65;;;22.10;99.90;;;;;;4222093;28;20036;-63
2021/08/01 04:27:18;;;;;;;9.10;6.25;;;22.70;99.90;;;;;;4221834;28;20147;-62
2021/08/01 04:29:19;;;;;;;10.48;5.55;;;23.30;99.90;;;;;;4221624;28;20040;-62
2021/08/01 04:31:20;;;;;;;8.48;5.78;;;23.30;99.90;;;;;;4222439;28;20032;-62
2021/08/01 04:33:21;;;;;;;10.48;6.07;;;23.00;99.90;;;;;;4221369;28;20486;-63
2021/08/01 04:35:23;;;;;;;7.60;4.95;;;22.90;99.90;;;;;;4221825;28;20032;-62
2021/08/01 04:37:24;;;;;;;7.47;5.13;;;23.00;99.90;;;;;;4221588;28;20032;-62
2021/08/01 04:39:25;;;;;;;9.23;5.38;;;23.00;99.90;;;;;;4221511;28;20072;-62
2021/08/01 04:41:26;;;;;;;9.23;5.53;;;22.80;99.90;;;;;;4221641;28;20036;-63
2021/08/01 04:43:27;;;;;;;8.70;5.18;;;23.00;99.90;;;;;;4221992;28;20451;-62
2021/08/01 04:45:28;;;;;;;7.45;4.75;;;23.00;99.90;;;;;;4221896;28;20032;-62
2021/08/01 04:47:29;;;;;;;11.50;4.65;;;22.80;99.90;;;;;;4220804;28;20048;-62
2021/08/01 04:49:31;;;;;;;7.10;4.95;;;22.80;99.90;;;;;;4221817;28;20027;-59
2021/08/01 04:51:32;;;;;;;6.07;5.22;;;22.90;99.90;;;;;;4224250;28;20088;-60
2021/08/01 04:53:33;;;;;;;7.30;4.68;;;22.90;99.90;;;;;;4224715;28;20440;-62
2021/08/01 04:55:35;;;;;;;7.07;5.18;;;23.20;99.90;;;;;;4224070;28;20094;-62
2021/08/01 04:57:36;;;;;;;7.45;5.40;;;23.40;99.90;;;;;;4224154;28;20046;-62
2021/08/01 04:59:37;;;;;;;5.70;4.93;;;23.60;99.90;;;;;;4223817;28;20507;-61
2021/08/01 05:01:39;;;;;;;6.75;5.25;;;23.50;99.90;;;;;;4224490;28;20471;-63
2021/08/01 05:03:40;;;;;;;9.40;4.95;;;23.50;99.90;;;;;;4223478;28;20047;-62
2021/08/01 05:05:41;;;;;;;6.88;3.88;;;23.30;99.90;;;;;;4224522;28;20044;-62
2021/08/01 05:07:42;;;;;;;8.30;4.97;;;23.50;99.90;;;;;;4224127;28;20047;-62
2021/08/01 05:09:43;;;;;;;4.95;3.33;;;23.50;99.90;;;;;;4224761;28;20436;-62
2021/08/01 05:11:44;;;;;;;6.95;3.50;;;23.40;99.90;;;;;;4222173;28;20040;-62
2021/08/01 05:13:46;;;;;;;4.03;3.63;;;23.10;99.90;;;;;;4222562;28;20068;-62
2021/08/01 05:15:47;;;;;;;6.72;3.85;;;23.00;99.90;;;;;;4224489;28;20035;-60
2021/08/01 05:17:48;;;;;;;4.32;3.47;;;23.20;99.90;;;;;;4223689;28;20191;-62
2021/08/01 05:19:49;;;;;;;5.03;3.78;;;23.40;99.90;;;;;;4224657;28;20092;-62
2021/08/01 05:21:50;;;;;;;5.82;4.63;;;23.50;99.90;;;;;;4224132;28;20035;-59
2021/08/01 05:23:52;;;;;;;4.03;3.28;;;23.90;99.90;;;;;;4223480;27;20089;-61
2021/08/01 05:25:53;;;;;;;4.70;3.42;;;23.90;99.90;;;;;;4223867;28;20829;-62
2021/08/01 05:27:54;;;;;;;5.93;3.95;;;24.10;99.90;;;;;;4223739;28;20097;-63
2021/08/01 05:29:55;;;;;;;6.22;3.10;;;24.30;99.90;;;;;;4223642;28;20069;-61
2021/08/01 05:31:56;;;;;;;3.78;3.28;;;24.50;99.90;;;;;;4224018;28;20049;-62
2021/08/01 05:33:57;;;;;;;3.60;2.88;;;24.10;99.90;;;;;;4223582;28;20080;-62
2021/08/01 05:36:05;;;;;;;3.80;3.10;;;23.60;99.90;;;;;;4223898;28;20025;-62
2021/08/01 05:38:07;;;;;;;3.45;2.97;;;23.80;99.90;;;;;;4223198;28;20432;-61
2021/08/01 05:40:10;;;;;;;4.53;3.25;;;24.00;99.90;;;;;;4224074;28;20096;-63
2021/08/01 05:42:11;;;;;;;5.85;3.20;;;23.90;99.90;;;;;;4223627;28;20039;-63
2021/08/01 05:44:12;;;;;;;4.90;2.90;;;24.20;99.90;;;;;;4223949;28;20035;-62
2021/08/01 05:46:13;;;;;;;4.93;3.72;;;24.30;99.90;;;;;;4223486;28;20035;-62
2021/08/01 05:48:14;;;;;;;9.02;3.65;;;24.20;99.90;;;;;;4223853;28;20039;-62
2021/08/01 05:50:16;;;;;;;5.65;2.90;;;24.00;99.90;;;;;;4223309;28;20108;-61
2021/08/01 05:52:17;;;;;;;5.47;3.10;;;24.10;99.90;;;;;;4223745;28;20533;-62
2021/08/01 05:54:19;;;;;;;6.05;3.67;;;23.90;99.90;;;;;;4223763;28;20117;-62
2021/08/01 05:56:20;;;;;;;5.60;4.00;;;23.80;99.90;;;;;;4223605;28;20027;-62
2021/08/01 05:58:21;;;;;;;4.88;3.83;;;23.50;99.90;;;;;;4223020;28;20441;-62
2021/08/01 06:00:22;;;;;;;6.30;4.85;;;23.30;99.90;;;;;;4223565;28;20027;-61
2021/08/01 06:02:23;;;;;;;5.00;4.07;;;23.30;99.90;;;;;;4223154;28;20084;-61
2021/08/01 06:04:24;;;;;;;6.95;3.70;;;23.20;99.90;;;;;;4223143;28;20429;-62
2021/08/01 06:06:25;;;;;;;6.90;4.22;;;23.00;99.90;;;;;;4223594;28;20040;-59
2021/08/01 06:08:27;;;;;;;5.30;4.72;;;23.10;99.90;;;;;;4223102;28;20028;-62
2021/08/01 06:10:28;;;;;;;5.78;4.45;;;23.10;99.90;;;;;;4223496;28;20024;-62
2021/08/01 06:12:29;;;;;;;6.80;4.80;;;23.60;99.90;;;;;;4223239;28;20085;-63
2021/08/01 06:14:30;;;;;;;5.47;4.65;;;23.60;99.90;;;;;;4222382;28;20084;-62
2021/08/01 06:16:31;;;;;;;8.65;4.90;;;23.80;99.90;;;;;;4222544;28;20558;-63
2021/08/01 06:18:32;;;;;;;9.75;4.68;;;23.70;99.90;;;;;;4223313;28;20069;-63
2021/08/01 06:20:33;;;;;;;6.53;5.43;;;23.70;99.90;;;;;;4222247;28;20737;-61
2021/08/01 06:22:34;;;;;;;6.40;5.13;;;23.50;99.90;;;;;;4223141;28;20031;-63
2021/08/01 06:24:35;;;;;;;7.10;5.13;;;23.50;99.90;;;;;;4222979;28;20043;-62
2021/08/01 06:26:37;;;;;;;8.38;5.93;;;23.70;99.90;;;;;;4222382;28;20687;-62
2021/08/01 06:28:38;;;;;;;8.75;5.68;;;23.60;99.90;;;;;;4223040;28;20556;-63
2021/08/01 06:30:39;;;;;;;6.30;5.63;;;23.80;99.90;;;;;;4222556;28;20023;-62
2021/08/01 06:32:41;;;;;;;7.22;5.50;;;23.90;99.90;;;;;;4222152;28;20043;-61
2021/08/01 06:34:42;;;;;;;6.43;5.72;;;24.00;99.90;;;;;;4222545;27;20039;-62
2021/08/01 06:36:43;;;;;;;7.95;5.93;;;23.90;99.90;;;;;;4222837;28;20023;-62
2021/08/01 06:38:45;;;;;;;8.00;6.28;;;24.30;99.90;;;;;;4221912;28;20031;-62
2021/08/01 06:40:46;;;;;;;8.50;6.38;;;24.50;99.90;;;;;;4221292;28;20043;-62
2021/08/01 06:42:47;;;;;;;8.55;6.10;;;24.70;99.90;;;;;;4221825;28;20080;-62
2021/08/01 06:44:48;;;;;;;7.82;6.65;;;24.70;99.90;;;;;;4219720;28;20077;-61
2021/08/01 06:46:49;;;;;;;10.93;6.55;;;24.50;99.90;;;;;;4220331;28;20043;-61
2021/08/01 06:48:51;;;;;;;7.63;6.93;;;24.50;99.90;;;;;;4221985;28;20027;-62
2021/08/01 06:50:52;;;;;;;10.90;7.13;;;24.60;99.90;;;;;;4222042;28;20084;-60
2021/08/01 06:52:53;;;;;;;11.82;6.47;;;24.70;99.90;;;;;;4221590;28;20117;-61
2021/08/01 06:54:54;;;;;;;9.05;7.10;;;24.70;99.90;;;;;;4222046;28;20084;-62
2021/08/01 06:56:55;;;;;;;7.90;6.97;;;24.60;99.90;;;;;;4221962;28;20085;-62
2021/08/01 06:58:56;;;;;;;7.75;6.95;;;24.50;99.90;;;;;;4221230;28;20556;-62
2021/08/01 07:00:58;;;;;;;8.75;7.30;;;24.60;99.90;;;;;;4221450;28;20469;-63
2021/08/01 07:03:01;;;;;;;11.10;7.70;;;24.60;99.90;;;;;;4222364;28;20080;-62
2021/08/01 07:05:03;;;;;;;10.50;7.10;;;24.50;99.90;;;;;;4221908;28;20035;-60
2021/08/01 07:07:04;;;;;;;7.70;6.90;;;24.50;99.90;;;;;;4221285;28;20040;-62
2021/08/01 07:09:05;;;;;;;7.60;6.80;;;24.70;99.90;;;;;;4221835;28;20372;-61
2021/08/01 07:11:06;;;;;;;8.10;6.38;;;24.80;99.90;;;;;;4221590;28;20036;-62
2021/08/01 07:13:09;;;;;;;8.10;7.30;;;25.00;99.90;;;;;;4221357;28;20036;-59
2021/08/01 07:15:15;;;;;;;9.43;6.68;;;25.30;99.90;;;;;;4221491;28;20047;-61
2021/08/01 07:17:22;;;;;;;8.18;6.53;;;25.30;99.90;;;;;;4221966;28;20108;-60
2021/08/01 07:19:23;;;;;;;9.38;7.07;;;25.10;99.90;;;;;;4221612;28;20124;-62
2021/08/01 07:21:24;;;;;;;10.80;6.82;;;25.10;99.90;;;;;;4223812;27;20031;-61
2021/08/01 07:23:27;;;;;;;11.20;7.13;;;25.00;99.90;;;;;;4223044;28;20055;-67
2021/08/01 07:25:28;;;;;;;8.90;7.00;;;25.00;99.90;;;;;;4221908;28;20088;-61
2021/08/01 07:27:29;;;;;;;10.02;6.57;;;25.30;99.90;;;;;;4229686;27;20047;-60
2021/08/01 07:29:31;;;;;;;10.80;7.20;;;25.30;99.90;;;;;;4238331;27;20823;-60
2021/08/01 07:31:32;;;;;;;8.23;7.05;;;25.40;99.90;;;;;;4238604;27;20031;-60
2021/08/01 07:33:33;;;;;;;7.72;6.22;;;25.60;99.90;;;;;;4238475;27;20035;-61
2021/08/01 07:35:34;;;;;;;11.73;7.07;;;25.60;99.90;;;;;;4233772;27;20039;-61
2021/08/01 07:37:36;;;;;;;11.52;6.40;;;25.70;99.90;;;;;;4227672;27;20076;-62
2021/08/01 07:39:37;;;;;;;9.20;6.88;;;25.60;99.90;;;;;;4221206;28;20084;-62
2021/08/01 07:41:39;;;;;;;8.95;6.05;;;25.60;99.90;;;;;;4238861;27;20579;-63
2021/08/01 07:43:40;;;;;;;7.88;7.05;;;25.50;99.90;;;;;;4236624;27;20088;-67
2021/08/01 07:45:42;;;;;;;9.48;7.05;;;25.70;99.90;;;;;;4239251;28;20528;-62
2021/08/01 07:47:43;;;;;;;8.73;5.78;;;25.80;99.90;;;;;;4236226;28;20043;-68
2021/08/01 07:49:46;;;;;;;8.45;6.32;;;25.80;99.90;;;;;;4221908;28;20479;-65
2021/08/01 07:51:47;;;;;;;6.53;5.93;;;25.90;99.90;;;;;;4222243;28;20280;-66
2021/08/01 07:53:48;;;;;;;9.23;5.97;;;25.90;99.90;;;;;;4222012;28;20055;-70
2021/08/01 07:55:49;;;;;;;8.75;6.25;;;25.90;99.90;;;;;;4221758;28;20369;-67
2021/08/01 07:57:51;;;;;;;9.05;5.90;;;26.00;99.90;;;;;;4221922;28;20031;-67
2021/08/01 07:59:56;;;;;;;10.63;6.60;;;26.30;99.90;;;;;;4221797;28;20478;-66
2021/08/01 08:01:57;;;;;;;9.00;5.60;;;26.30;99.90;;;;;;4222175;28;20467;-64
2021/08/01 08:03:59;;;;;;;6.82;6.07;;;26.50;99.90;;;;;;4222057;28;20020;-62
2021/08/01 08:06:05;;;;;;;6.85;5.95;;;26.50;99.90;;;;;;4222090;28;20487;-66
2021/08/01 08:08:06;;;;;;;6.05;5.45;;;26.50;99.90;;;;;;4207896;28;20105;-63
2021/08/01 08:10:08;;;;;;;6.38;5.78;;;26.40;99.90;;;;;;4216680;28;20039;-64
2021/08/01 08:12:10;;;;;;;8.25;6.30;;;26.40;99.90;;;;;;4215972;28;20048;-64
2021/08/01 08:14:11;;;;;;;8.60;6.30;;;26.60;99.90;;;;;;4212913;28;20487;-67
2021/08/01 08:16:12;;;;;;;8.35;6.10;;;26.60;99.90;;;;;;4218840;28;20116;-63
2021/08/01 08:18:13;;;;;;;7.70;6.10;;;26.80;99.90;;;;;;4209176;28;20531;-64
2021/08/01 08:20:15;;;;;;;8.18;6.28;;;27.00;99.90;;;;;;4210210;28;20908;-63
2021/08/01 08:22:16;;;;;;;8.32;6.15;;;26.90;99.90;;;;;;4217623;28;20113;-62
2021/08/01 08:24:17;;;;;;;11.05;5.82;;;27.00;99.90;;;;;;4226823;28;20035;-62
2021/08/01 08:26:18;;;;;;;7.65;6.40;;;27.10;99.90;;;;;;4222639;27;20098;-62
2021/08/01 08:28:20;;;;;;;7.65;6.03;;;27.00;99.90;;;;;;4226479;27;20036;-62
2021/08/01 08:30:21;;;;;;;6.82;6.07;;;27.10;99.90;;;;;;4223771;28;20076;-62
2021/08/01 08:32:22;;;;;;;7.68;5.55;;;27.10;99.90;;;;;;4223218;27;20097;-62
2021/08/01 08:34:23;;;;;;;7.63;5.70;;;27.20;99.90;;;;;;4223768;28;20032;-63
2021/08/01 08:36:25;;;;;;;6.30;5.63;;;27.20;99.90;;;;;;4223090;28;20040;-63
2021/08/01 08:38:26;;;;;;;7.07;6.20;;;27.20;99.90;;;;;;4239139;27;20493;-62
2021/08/01 08:40:28;;;;;;;6.40;5.70;;;27.10;99.90;;;;;;4240593;27;20031;-62
2021/08/01 08:42:29;;;;;;;7.30;5.85;;;27.00;99.90;;;;;;4240360;27;20038;-63
2021/08/01 08:44:31;;;;;;;6.60;5.90;;;27.00;99.90;;;;;;4237470;27;20043;-63
2021/08/01 08:46:35;;;;;;;8.65;6.03;;;27.00;99.90;;;;;;4240499;27;20027;-63
2021/08/01 08:48:38;;;;;;;6.93;5.72;;;27.00;99.90;;;;;;4239316;27;20035;-63
2021/08/01 08:50:41;;;;;;;7.60;5.82;;;26.90;99.90;;;;;;4240293;27;20047;-65
2021/08/01 08:52:44;;;;;;;7.43;5.93;;;27.00;99.90;;;;;;4233273;27;20089;-65
2021/08/01 08:54:50;;;;;;;6.35;5.75;;;27.00;99.90;;;;;;4222686;28;20047;-65
2021/08/01 08:56:55;;;;;;;9.40;6.43;;;27.00;99.90;;;;;;4223353;27;20019;-64
2021/08/01 08:58:57;;;;;;;7.22;6.30;;;27.00;99.90;;;;;;4223232;28;20088;-64
2021/08/01 09:00:58;;;;;;;9.77;5.80;;;27.30;99.90;;;;;;4223517;28;20027;-63
2021/08/01 09:03:00;;;;;;;6.53;5.75;;;27.40;99.90;;;;;;4222522;28;20483;-64
2021/08/01 09:05:02;;;;;;;6.63;6.03;;;27.30;99.90;;;;;;4221324;28;20043;-65
2021/08/01 09:07:03;;;;;;;8.63;6.25;;;27.30;99.90;;;;;;4222157;28;20051;-64
2021/08/01 09:09:04;;;;;;;7.03;6.30;;;27.40;99.90;;;;;;4223455;27;20089;-62
2021/08/01 09:11:05;;;;;;;7.90;6.07;;;27.30;99.90;;;;;;4238807;27;20031;-63
2021/08/01 09:13:07;;;;;;;13.38;6.50;;;27.30;99.90;;;;;;4239797;27;20088;-63
2021/08/01 09:15:08;;;;;;;6.30;5.63;;;27.50;99.90;;;;;;4239512;27;20019;-63
2021/08/01 09:17:10;;;;;;;7.20;5.97;;;27.50;99.90;;;;;;4239733;27;20100;-63
2021/08/01 09:19:32;;;;;;;7.47;5.75;;;27.40;99.90;;;;;;4238299;27;20092;-63
2021/08/01 09:21:34;;;;;;;6.60;5.90;;;27.40;99.90;;;;;;4234136;27;20035;-63
2021/08/01 09:23:36;;;;;;;6.05;5.55;;;27.40;99.90;;;;;;4220516;27;20039;-63
2021/08/01 09:25:40;;;;;;;8.77;6.47;;;27.50;99.90;;;;;;4223691;28;20429;-63
2021/08/01 09:27:41;;;;;;;6.40;5.68;;;27.60;99.90;;;;;;4222858;27;20060;-62
2021/08/01 09:29:49;;;;;;;6.25;5.55;;;27.70;99.90;;;;;;4223119;28;20100;-63
2021/08/01 09:31:59;;;;;;;7.22;5.63;;;27.90;99.90;;;;;;4223746;27;20556;-61
2021/08/01 09:34:00;;;;;;;6.10;5.47;;;27.90;99.90;;;;;;4224043;28;20042;-64
2021/08/01 09:36:10;;;;;;;6.22;5.60;;;27.80;99.90;;;;;;4235610;27;20803;-63
2021/08/01 09:38:13;;;;;;;8.50;6.68;;;27.80;99.90;;;;;;4240962;27;20490;-64
2021/08/01 09:40:14;;;;;;;7.55;5.72;;;27.90;99.90;;;;;;4240544;27;20088;-63
2021/08/01 09:42:15;;;;;;;5.88;5.10;;;27.80;99.70;;;;;;4227583;27;20433;-64
2021/08/01 09:44:20;;;;;;;10.52;6.40;;;27.90;99.90;;;;;;4230421;27;20072;-63
2021/08/01 09:46:22;;;;;;;9.05;6.15;;;28.00;99.60;;;;;;4238424;27;20071;-62
2021/08/01 09:48:23;;;;;;;7.43;6.40;;;28.00;99.80;;;;;;4240215;27;20448;-62
2021/08/01 09:50:24;;;;;;;6.20;5.22;;;28.10;99.80;;;;;;4234078;27;20493;-62
2021/08/01 09:52:26;;;;;;;7.45;5.60;;;28.30;99.70;;;;;;4223587;28;20032;-63
2021/08/01 09:54:46;;;;;;;10.70;5.57;;;28.30;99.10;;;;;;4223556;28;20556;-63
2021/08/01 09:57:01;;;;;;;8.98;6.00;;;28.20;98.70;;;;;;4223475;28;20028;-64
2021/08/01 09:59:02;;;;;;;8.13;5.72;;;28.10;98.90;;;;;;4223293;28;20100;-62
2021/08/01 10:01:04;;;;;;;10.60;5.90;;;28.10;99.00;;;;;;4223274;28;20070;-62
2021/08/01 10:03:05;;;;;;;5.60;5.00;;;28.10;98.90;;;;;;4223028;28;20116;-63
2021/08/01 10:05:24;;;;;;;7.72;5.38;;;28.00;98.70;;;;;;4221749;28;20084;-61
2021/08/01 10:07:26;;;;;;;6.80;5.55;;;28.10;98.90;;;;;;4223250;28;20028;-62
2021/08/01 10:09:27;;;;;;;6.20;4.93;;;28.20;99.00;;;;;;4223097;28;20036;-63
2021/08/01 10:11:28;;;;;;;7.60;4.85;;;28.30;98.60;;;;;;4222961;28;20084;-63
2021/08/01 10:13:30;;;;;;;5.78;5.10;;;28.30;98.50;;;;;;4221476;28;20491;-62
2021/08/01 10:15:31;;;;;;;6.53;4.85;;;28.40;98.50;;;;;;4222862;28;20057;-61
2021/08/01 10:17:32;;;;;;;5.47;4.95;;;28.40;98.30;;;;;;4222562;28;20039;-61
2021/08/01 10:19:34;;;;;;;5.10;4.43;;;28.50;98.10;;;;;;4222983;28;20497;-62
2021/08/01 10:21:36;;;;;;;6.15;4.53;;;28.60;97.90;;;;;;4223232;28;20924;-61
2021/08/01 10:23:45;;;;;;;5.18;4.45;;;28.60;97.70;;;;;;4223640;27;20100;-61
2021/08/01 10:25:46;;;;;;;6.55;4.07;;;28.60;97.50;;;;;;4206356;28;20031;-63
2021/08/01 10:27:52;;;;;;;6.70;4.20;;;28.70;97.50;;;;;;4205803;28;20557;-62
2021/08/01 10:29:54;;;;;;;10.70;4.25;;;28.80;97.60;;;;;;4205344;28;20032;-62
2021/08/01 10:32:06;;;;;;;6.78;4.32;;;28.90;97.60;;;;;;4206078;28;20302;-62
2021/08/01 10:34:15;;;;;;;5.47;4.57;;;28.90;97.00;;;;;;4205539;28;20078;-62